createdAt,value
2023-04-22T00:02:47.003Z,100523.78
2023-04-22T00:05:36.387Z,100532.69
2023-04-22T00:08:27.044Z,100508.81
2023-04-22T00:11:16.278Z,100513.31
2023-04-22T00:14:05.528Z,100504.13
2023-04-22T00:16:54.775Z,100510.56
2023-04-22T00:19:44.021Z,100507.81
2023-04-22T00:22:33.260Z,100503.66
2023-04-22T00:25:23.884Z,100509.44
2023-04-22T00:28:13.224Z,100496.22
2023-04-22T00:31:03.439Z,100483.94
2023-04-22T00:33:52.712Z,100486.84
2023-04-22T00:36:41.995Z,100476.84
2023-04-22T00:39:31.242Z,100477.16
2023-04-22T00:42:22.661Z,100471.84
2023-04-22T00:45:17.967Z,100475.09
2023-04-22T00:48:08.235Z,100470.44
2023-04-22T00:50:57.553Z,100467.38
2023-04-22T00:53:47.105Z,100465.47
2023-04-22T00:56:39.434Z,100453.69
2023-04-22T00:59:30.353Z,100465.81
2023-04-22T01:02:19.872Z,100454.53
2023-04-22T01:05:10.667Z,100453.28
2023-04-22T01:08:00.620Z,100447.75
2023-04-22T01:10:49.959Z,100438.00
2023-04-22T01:13:39.289Z,100437.66
2023-04-22T01:16:31.368Z,100443.16
2023-04-22T01:19:20.773Z,100439.78
2023-04-22T01:22:11.875Z,100429.66
2023-04-22T01:25:03.242Z,100423.50
2023-04-22T01:27:52.572Z,100417.06
2023-04-22T01:30:42.858Z,100419.63
2023-04-22T01:33:32.250Z,100412.41
2023-04-22T01:36:21.588Z,100403.19
2023-04-22T01:39:10.877Z,100399.47
2023-04-22T01:42:02.299Z,100403.00
2023-04-22T01:44:51.592Z,100405.75
2023-04-22T01:47:40.937Z,100404.94
2023-04-22T01:50:30.228Z,100408.00
2023-04-22T01:53:19.497Z,100403.34
2023-04-22T01:56:09.286Z,100409.63
2023-04-22T01:59:00.192Z,100402.25
2023-04-22T02:01:52.651Z,100405.78
2023-04-22T02:04:42.906Z,100402.38
2023-04-22T02:07:32.188Z,100390.47
2023-04-22T02:10:21.672Z,100397.41
2023-04-22T02:13:10.949Z,100393.69
2023-04-22T02:16:01.656Z,100382.56
2023-04-22T02:18:51.095Z,100377.06
2023-04-22T02:21:41.240Z,100391.88
2023-04-22T02:24:32.364Z,100371.34
2023-04-22T02:27:21.841Z,100379.50
2023-04-22T02:30:11.953Z,100375.47
2023-04-22T02:33:02.609Z,100368.38
2023-04-22T02:35:51.917Z,100365.19
2023-04-22T02:38:41.223Z,100359.69
2023-04-22T02:41:30.552Z,100359.03
2023-04-22T02:44:19.851Z,100361.13
2023-04-22T02:47:09.461Z,100363.88
2023-04-22T02:50:00.155Z,100342.78
2023-04-22T02:52:51.486Z,100348.81
2023-04-22T02:55:42.944Z,100352.34
2023-04-22T02:58:32.258Z,100349.31
2023-04-22T03:01:21.603Z,100341.38
2023-04-22T03:04:14.393Z,100340.94
2023-04-22T03:07:05.273Z,100341.25
2023-04-22T03:09:56.028Z,100339.94
2023-04-22T03:12:46.203Z,100325.97
2023-04-22T03:15:35.712Z,100330.31
2023-04-22T03:18:24.974Z,100327.03
2023-04-22T03:21:14.286Z,100323.28
2023-04-22T03:24:05.124Z,100310.88
2023-04-22T03:26:56.353Z,100314.41
2023-04-22T03:29:45.930Z,100307.34
2023-04-22T03:32:35.715Z,100300.03
2023-04-22T03:35:44.169Z,100296.50
2023-04-22T03:38:34.282Z,100288.59
2023-04-22T03:41:26.596Z,100287.00
2023-04-22T03:44:16.016Z,100273.69
2023-04-22T03:47:06.597Z,100274.50
2023-04-22T03:50:02.868Z,100270.78
2023-04-22T03:52:54.735Z,100265.31
2023-04-22T03:55:44.087Z,100247.13
2023-04-22T03:58:36.973Z,100252.13
2023-04-22T04:01:28.956Z,100243.25
2023-04-22T04:04:23.884Z,100239.84
2023-04-22T04:07:18.289Z,100228.19
2023-04-22T04:10:09.522Z,100238.66
2023-04-22T04:12:59.430Z,100240.09
2023-04-22T04:15:52.736Z,100230.94
2023-04-22T04:18:42.914Z,100229.34
2023-04-22T04:21:33.530Z,100234.94
2023-04-22T04:24:23.286Z,100234.94
2023-04-22T04:27:16.011Z,100223.97
2023-04-22T04:30:13.393Z,100220.63
2023-04-22T04:33:12.419Z,100215.47
2023-04-22T04:36:05.471Z,100207.13
2023-04-22T04:38:57.216Z,100180.59
2023-04-22T04:41:49.139Z,100192.03
2023-04-22T04:44:39.279Z,100193.78
2023-04-22T04:47:28.496Z,100182.81
2023-04-22T04:50:28.283Z,100169.78
2023-04-22T04:53:23.177Z,100149.72
2023-04-22T04:56:12.419Z,100171.72
2023-04-22T04:59:02.049Z,100152.47
2023-04-22T05:01:52.006Z,100167.38
2023-04-22T05:04:41.664Z,100167.72
2023-04-22T05:07:32.656Z,100164.50
2023-04-22T05:10:22.701Z,100151.91
2023-04-22T05:13:12.086Z,100161.75
2023-04-22T05:16:04.607Z,100159.66
2023-04-22T05:18:54.215Z,100160.19
2023-04-22T05:21:43.575Z,100149.03
2023-04-22T05:24:34.257Z,100152.88
2023-04-22T05:27:23.666Z,100152.19
2023-04-22T05:30:13.503Z,100147.34
2023-04-22T05:33:02.818Z,100161.53
2023-04-22T05:35:53.827Z,100144.03
2023-04-22T05:38:43.133Z,100153.78
2023-04-22T05:41:33.875Z,100135.13
2023-04-22T05:44:24.608Z,100146.03
2023-04-22T05:47:14.029Z,100143.19
2023-04-22T05:50:03.754Z,100150.72
2023-04-22T05:53:19.240Z,100150.72
2023-04-22T05:56:09.199Z,100140.75
2023-04-22T05:58:59.808Z,100150.03
2023-04-22T06:01:49.566Z,100144.44
2023-04-22T06:04:42.555Z,100149.50
2023-04-22T06:07:32.096Z,100150.53
2023-04-22T06:10:21.444Z,100136.84
2023-04-22T06:13:10.776Z,100137.13
2023-04-22T06:16:02.213Z,100144.31
2023-04-22T06:18:51.782Z,100137.03
2023-04-22T06:21:43.407Z,100128.59
2023-04-22T06:24:32.854Z,100118.66
2023-04-22T06:27:22.267Z,100131.06
2023-04-22T06:30:12.687Z,100130.53
2023-04-22T06:33:04.509Z,100127.69
2023-04-22T06:35:53.916Z,100126.81
2023-04-22T06:38:43.667Z,100118.25
2023-04-22T06:41:49.204Z,100115.84
2023-04-22T06:44:58.406Z,100112.66
2023-04-22T06:48:05.936Z,100107.63
2023-04-22T06:51:09.006Z,100107.41
2023-04-22T06:53:58.631Z,100098.88
2023-04-22T06:56:47.984Z,100098.66
2023-04-22T06:59:37.858Z,100094.31
2023-04-22T07:02:27.463Z,100101.66
2023-04-22T07:05:18.790Z,100102.09
2023-04-22T07:08:08.708Z,100102.72
2023-04-22T07:10:58.979Z,100096.09
2023-04-22T07:14:00.171Z,100092.69
2023-04-22T07:16:49.588Z,100101.22
2023-04-22T07:19:39.211Z,100098.97
2023-04-22T07:22:30.123Z,100101.72
2023-04-22T07:25:19.547Z,100095.00
2023-04-22T07:28:08.908Z,100095.25
2023-04-22T07:30:58.203Z,100089.25
2023-04-22T07:33:47.413Z,100088.00
2023-04-22T07:36:36.707Z,100078.41
2023-04-22T07:39:27.684Z,100075.31
2023-04-22T07:42:17.031Z,100085.38
2023-04-22T07:45:07.830Z,100057.16
2023-04-22T07:47:57.729Z,100066.53
2023-04-22T07:50:47.146Z,100076.94
2023-04-22T07:53:36.573Z,100062.72
2023-04-22T07:56:27.491Z,100066.16
2023-04-22T07:59:16.734Z,100072.13
2023-04-22T08:02:06.151Z,100068.66
2023-04-22T08:04:55.435Z,100064.53
2023-04-22T08:07:44.808Z,100065.03
2023-04-22T08:10:34.200Z,100061.25
2023-04-22T08:13:24.777Z,100060.00
2023-04-22T08:16:14.041Z,100051.44
2023-04-22T08:19:03.591Z,100048.56
2023-04-22T08:21:53.619Z,100058.88
2023-04-22T08:24:42.993Z,100050.72
2023-04-22T08:27:32.409Z,100046.13
2023-04-22T08:30:23.138Z,100049.53
2023-04-22T08:33:12.847Z,100050.78
2023-04-22T08:36:03.750Z,100045.84
2023-04-22T08:38:53.056Z,100030.03
2023-04-22T08:41:46.878Z,100030.03
2023-04-22T08:44:37.268Z,100023.50
2023-04-22T08:47:28.725Z,100021.63
2023-04-22T08:50:18.062Z,100014.28
2023-04-22T08:53:07.515Z,100020.19
2023-04-22T08:55:58.208Z,100014.53
2023-04-22T08:58:48.012Z,100021.53
2023-04-22T09:01:38.678Z,100009.50
2023-04-22T09:04:30.024Z,100013.25
2023-04-22T09:07:25.855Z,100014.72
2023-04-22T09:10:15.494Z,100008.94
2023-04-22T09:13:06.719Z,100013.13
2023-04-22T09:15:58.636Z,100006.25
2023-04-22T09:18:48.813Z,100009.94
2023-04-22T09:21:40.621Z,100010.66
2023-04-22T09:24:30.690Z,100005.19
2023-04-22T09:27:21.664Z,99992.84
2023-04-22T09:30:12.240Z,100001.06
2023-04-22T09:33:03.802Z,99990.75
2023-04-22T09:35:53.429Z,99987.56
2023-04-22T09:38:54.830Z,99987.56
2023-04-22T09:41:44.422Z,99985.16
2023-04-22T09:44:36.057Z,99979.25
2023-04-22T09:47:25.367Z,99985.00
2023-04-22T09:50:14.633Z,99994.84
2023-04-22T09:53:05.726Z,99987.72
2023-04-22T09:55:56.925Z,99993.69
2023-04-22T09:58:46.169Z,99991.88
2023-04-22T10:01:39.661Z,99994.50
2023-04-22T10:04:30.059Z,99991.88
2023-04-22T10:07:20.005Z,99993.97
2023-04-22T10:10:11.123Z,99984.16
2023-04-22T10:13:02.466Z,99977.94
2023-04-22T10:15:54.441Z,99988.06
2023-04-22T10:18:44.106Z,99987.56
2023-04-22T10:21:34.665Z,99978.03
2023-04-22T10:24:26.698Z,99990.22
2023-04-22T10:27:21.963Z,99995.75
2023-04-22T10:30:27.763Z,99997.06
2023-04-22T10:33:39.900Z,99976.25
2023-04-22T10:36:29.180Z,99976.72
2023-04-22T10:39:19.117Z,99983.13
2023-04-22T10:42:12.860Z,99983.03
2023-04-22T10:45:04.175Z,99989.72
2023-04-22T10:47:55.001Z,99980.94
2023-04-22T10:50:44.309Z,99992.72
2023-04-22T10:53:40.815Z,99986.94
2023-04-22T10:56:30.098Z,99991.19
2023-04-22T10:59:19.706Z,99992.19
2023-04-22T11:02:11.020Z,99979.81
2023-04-22T11:05:26.882Z,99971.63
2023-04-22T11:08:21.941Z,99984.78
2023-04-22T11:11:13.803Z,99972.75
2023-04-22T11:14:03.399Z,99971.31
2023-04-22T11:16:53.652Z,99974.84
2023-04-22T11:19:42.951Z,99971.94
2023-04-22T11:22:37.039Z,99977.25
2023-04-22T11:25:27.542Z,99926.53
2023-04-22T11:28:16.776Z,99970.34
2023-04-22T11:31:10.024Z,99969.72
2023-04-22T11:34:00.863Z,99977.09
2023-04-22T11:36:50.099Z,99979.63
2023-04-22T11:39:51.742Z,99977.69
2023-04-22T11:42:50.871Z,99969.50
2023-04-22T11:45:40.888Z,99970.34
2023-04-22T11:48:30.140Z,99979.19
2023-04-22T11:51:19.511Z,99975.31
2023-04-22T11:54:11.323Z,99979.97
2023-04-22T11:57:05.297Z,99971.47
2023-04-22T12:00:00.859Z,99971.47
2023-04-22T12:03:01.917Z,99966.97
2023-04-22T12:05:55.208Z,99964.56
2023-04-22T12:08:45.043Z,99965.69
2023-04-22T12:11:34.244Z,99969.22
2023-04-22T12:14:33.151Z,99972.09
2023-04-22T12:17:25.408Z,99960.06
2023-04-22T12:20:14.944Z,99965.34
2023-04-22T12:23:04.894Z,99965.50
2023-04-22T12:25:54.236Z,99964.41
2023-04-22T12:28:44.615Z,99964.06
2023-04-22T12:31:35.665Z,99960.34
2023-04-22T12:34:25.002Z,99961.44
2023-04-22T12:37:14.418Z,99947.63
2023-04-22T12:40:05.453Z,99958.34
2023-04-22T12:42:54.783Z,99965.91
2023-04-22T12:45:44.094Z,99951.28
2023-04-22T12:48:36.150Z,99955.09
2023-04-22T12:51:25.418Z,99957.94
2023-04-22T12:54:14.714Z,99963.03
2023-04-22T12:57:04.037Z,99966.38
2023-04-22T12:59:53.383Z,99953.06
2023-04-22T13:02:44.294Z,99951.16
2023-04-22T13:05:35.229Z,99947.13
2023-04-22T13:08:24.544Z,99952.31
2023-04-22T13:11:13.705Z,99957.28
2023-04-22T13:14:02.972Z,99955.84
2023-04-22T13:16:53.226Z,99949.06
2023-04-22T13:19:42.509Z,99950.97
2023-04-22T13:22:33.217Z,99942.75
2023-04-22T13:25:22.679Z,99949.94
2023-04-22T13:28:12.536Z,99948.69
2023-04-22T13:31:01.962Z,99949.84
2023-04-22T13:33:51.237Z,99946.75
2023-04-22T13:36:40.483Z,99937.75
2023-04-22T13:39:31.460Z,99942.88
2023-04-22T13:42:20.960Z,99941.50
2023-04-22T13:45:11.545Z,99944.53
2023-04-22T13:48:00.827Z,99946.25
2023-04-22T13:50:50.142Z,99941.91
2023-04-22T13:53:39.444Z,99936.88
2023-04-22T13:56:30.487Z,99934.47
2023-04-22T13:59:19.764Z,99945.28
2023-04-22T14:02:09.803Z,99939.75
2023-04-22T14:04:59.356Z,99935.88
2023-04-22T14:07:48.708Z,99934.63
2023-04-22T14:10:38.092Z,99940.22
2023-04-22T14:13:29.018Z,99926.94
2023-04-22T14:16:19.722Z,99927.69
2023-04-22T14:19:09.289Z,99931.03
2023-04-22T14:21:58.771Z,99922.44
2023-04-22T14:24:48.798Z,99923.91
2023-04-22T14:27:38.014Z,99923.03
2023-04-22T14:30:28.839Z,99921.03
2023-04-22T14:33:18.261Z,99913.97
2023-04-22T14:36:08.448Z,99921.13
2023-04-22T14:38:57.829Z,99923.47
2023-04-22T14:41:47.574Z,99919.97
2023-04-22T14:44:37.311Z,99928.44
2023-04-22T14:47:28.148Z,99926.66
2023-04-22T14:50:18.153Z,99920.94
2023-04-22T14:53:07.513Z,99926.09
2023-04-22T14:55:57.159Z,99896.03
2023-04-22T14:58:46.391Z,99920.63
2023-04-22T15:01:36.184Z,99911.03
2023-04-22T15:04:27.895Z,99911.47
2023-04-22T15:07:17.396Z,99913.28
2023-04-22T15:10:07.952Z,99913.50
2023-04-22T15:13:00.388Z,99911.41
2023-04-22T15:15:49.739Z,99907.75
2023-04-22T15:18:39.105Z,99910.69
2023-04-22T15:21:30.021Z,99910.91
2023-04-22T15:24:21.330Z,99909.94
2023-04-22T15:27:10.758Z,99901.28
2023-04-22T15:30:00.228Z,99903.88
2023-04-22T15:32:49.782Z,99903.06
2023-04-22T15:35:41.478Z,99898.38
2023-04-22T15:38:32.180Z,99897.59
2023-04-22T15:41:21.467Z,99907.22
2023-04-22T15:44:12.960Z,99893.88
2023-04-22T15:47:02.528Z,99887.59
2023-04-22T15:49:52.315Z,99901.84
2023-04-22T15:52:41.711Z,99895.59
2023-04-22T15:55:33.864Z,99891.97
2023-04-22T15:58:23.152Z,99896.31
2023-04-22T16:01:19.248Z,99888.69
2023-04-22T16:04:09.370Z,99886.66
2023-04-22T16:06:59.484Z,99887.25
2023-04-22T16:09:48.790Z,99897.06
2023-04-22T16:12:39.934Z,99872.75
2023-04-22T16:15:29.514Z,99892.41
2023-04-22T16:18:19.112Z,99888.78
2023-04-22T16:21:10.436Z,99880.19
2023-04-22T16:24:00.958Z,99886.59
2023-04-22T16:26:50.343Z,99884.44
2023-04-22T16:29:41.331Z,99876.56
2023-04-22T16:32:30.972Z,99875.75
2023-04-22T16:35:20.577Z,99874.38
2023-04-22T16:38:10.130Z,99874.28
2023-04-22T16:40:59.391Z,99868.56
2023-04-22T16:43:48.629Z,99873.91
2023-04-22T16:46:39.444Z,99872.50
2023-04-22T16:49:28.684Z,99871.72
2023-04-22T16:52:17.996Z,99871.06
2023-04-22T16:55:08.789Z,99872.66
2023-04-22T16:58:01.038Z,99871.00
2023-04-22T17:00:50.857Z,99874.00
2023-04-22T17:03:41.824Z,99879.78
2023-04-22T17:06:31.401Z,99882.88
2023-04-22T17:09:20.874Z,99881.00
2023-04-22T17:12:10.251Z,99877.56
2023-04-22T17:14:59.466Z,99868.84
2023-04-22T17:17:48.786Z,99861.38
2023-04-22T17:20:39.883Z,99871.97
2023-04-22T17:23:29.162Z,99869.16
2023-04-22T17:26:18.630Z,99871.31
2023-04-22T17:29:07.862Z,99862.59
2023-04-22T17:31:57.183Z,99867.44
2023-04-22T17:34:46.512Z,99862.84
2023-04-22T17:37:37.179Z,99864.66
2023-04-22T17:40:26.492Z,99864.84
2023-04-22T17:43:15.878Z,99862.78
2023-04-22T17:46:05.176Z,99858.13
2023-04-22T17:48:54.471Z,99854.94
2023-04-22T17:51:44.096Z,99855.72
2023-04-22T17:54:34.895Z,99856.53
2023-04-22T17:57:24.104Z,99853.44
2023-04-22T18:00:15.627Z,99839.56
2023-04-22T18:03:06.758Z,99846.75
2023-04-22T18:05:56.090Z,99833.94
2023-04-22T18:08:45.801Z,99850.03
2023-04-22T18:11:36.650Z,99847.47
2023-04-22T18:14:26.801Z,99851.69
2023-04-22T18:17:20.097Z,99843.81
2023-04-22T18:20:18.027Z,99845.44
2023-04-22T18:23:08.137Z,99839.97
2023-04-22T18:25:57.336Z,99837.22
2023-04-22T18:28:48.506Z,99842.81
2023-04-22T18:31:37.862Z,99841.03
2023-04-22T18:34:28.601Z,99841.03
2023-04-22T18:37:17.921Z,99833.16
2023-04-22T18:40:09.354Z,99840.69
2023-04-22T18:42:58.824Z,99834.09
2023-04-22T18:45:49.515Z,99836.16
2023-04-22T18:48:38.751Z,99838.09
2023-04-22T18:51:28.108Z,99831.81
2023-04-22T18:54:17.478Z,99828.63
2023-04-22T18:57:06.818Z,99823.63
2023-04-22T18:59:56.219Z,99824.41
2023-04-22T19:02:47.035Z,99833.28
2023-04-22T19:05:36.318Z,99834.28
2023-04-22T19:08:25.851Z,99825.81
2023-04-22T19:11:16.605Z,99833.06
2023-04-22T19:14:06.222Z,99839.22
2023-04-22T19:16:55.406Z,99774.50
2023-04-22T19:19:46.623Z,99822.72
2023-04-22T19:22:36.015Z,99831.53
2023-04-22T19:25:25.654Z,99828.19
2023-04-22T19:28:14.966Z,99827.56
2023-04-22T19:31:05.471Z,99812.34
2023-04-22T19:33:54.974Z,99825.03
2023-04-22T19:36:45.541Z,99827.13
2023-04-22T19:39:34.906Z,99828.28
2023-04-22T19:42:24.101Z,99825.53
2023-04-22T19:45:13.524Z,99837.09
2023-04-22T19:48:04.047Z,99831.84
2023-04-22T19:50:53.609Z,99826.09
2023-04-22T19:53:44.767Z,99833.16
2023-04-22T19:56:34.862Z,99828.81
2023-04-22T19:59:25.479Z,99834.63
2023-04-22T20:02:15.789Z,99830.59
2023-04-22T20:05:06.725Z,99821.75
2023-04-22T20:07:59.298Z,99827.31
2023-04-22T20:10:50.446Z,99816.09
2023-04-22T20:13:40.952Z,99824.41
2023-04-22T20:16:31.059Z,99819.75
2023-04-22T20:19:20.869Z,99827.94
2023-04-22T20:22:13.625Z,99828.41
2023-04-22T20:25:07.679Z,99820.06
2023-04-22T20:27:58.623Z,99825.03
2023-04-22T20:30:48.491Z,99816.84
2023-04-22T20:33:38.503Z,99821.50
2023-04-22T20:36:28.565Z,99828.56
2023-04-22T20:39:18.757Z,99819.06
2023-04-22T20:42:10.789Z,99817.81
2023-04-22T20:45:01.444Z,99812.22
2023-04-22T20:47:51.550Z,99812.81
2023-04-22T20:50:41.006Z,99815.09
2023-04-22T20:53:30.737Z,99810.56
2023-04-22T20:56:21.502Z,99808.94
2023-04-22T20:59:10.721Z,99815.38
2023-04-22T21:02:02.480Z,99804.16
2023-04-22T21:04:51.818Z,99807.22
2023-04-22T21:07:42.768Z,99809.63
2023-04-22T21:10:33.343Z,99815.38
2023-04-22T21:13:23.583Z,99811.84
2023-04-22T21:16:15.005Z,99817.31
2023-04-22T21:19:08.455Z,99812.31
2023-04-22T21:22:00.764Z,99799.66
2023-04-22T21:24:51.062Z,99801.88
2023-04-22T21:27:41.088Z,99814.06
2023-04-22T21:30:31.417Z,99761.22
2023-04-22T21:33:20.959Z,99814.53
2023-04-22T21:36:11.838Z,99811.16
2023-04-22T21:39:02.840Z,99807.00
2023-04-22T21:41:52.191Z,99812.47
2023-04-22T21:44:44.736Z,99804.91
2023-04-22T21:47:34.046Z,99796.72
2023-04-22T21:50:25.105Z,99804.25
2023-04-22T21:53:15.946Z,99808.59
2023-04-22T21:56:05.361Z,99809.72
2023-04-22T21:58:55.710Z,99801.53
2023-04-22T22:01:45.070Z,99803.94
2023-04-22T22:04:35.402Z,99806.72
2023-04-22T22:07:24.872Z,99799.50
2023-04-22T22:10:19.054Z,99800.81
2023-04-22T22:13:08.412Z,99802.22
2023-04-22T22:15:57.951Z,99812.81
2023-04-22T22:18:48.569Z,99802.91
2023-04-22T22:21:38.145Z,99801.59
2023-04-22T22:24:27.517Z,99808.53
2023-04-22T22:27:18.236Z,99795.88
2023-04-22T22:30:09.450Z,99800.06
2023-04-22T22:32:58.756Z,99800.38
2023-04-22T22:35:48.247Z,99799.13
2023-04-22T22:38:37.877Z,99802.34
2023-04-22T22:41:27.088Z,99795.13
2023-04-22T22:44:17.777Z,99796.59
2023-04-22T22:47:07.595Z,99796.09
2023-04-22T22:49:56.908Z,99801.25
2023-04-22T22:52:46.322Z,99790.34
2023-04-22T22:55:35.928Z,99797.06
2023-04-22T22:58:25.586Z,99794.34
2023-04-22T23:01:16.934Z,99785.97
2023-04-22T23:04:06.537Z,99795.94
2023-04-22T23:06:56.440Z,99801.41
2023-04-22T23:09:45.737Z,99792.56
2023-04-22T23:12:35.548Z,99775.41
2023-04-22T23:15:24.919Z,99791.91
2023-04-22T23:18:21.076Z,99791.25
2023-04-22T23:21:11.774Z,99787.69
2023-04-22T23:24:02.505Z,99785.81
2023-04-22T23:26:52.682Z,99779.84
2023-04-22T23:29:44.427Z,99782.56
2023-04-22T23:32:36.581Z,99773.59
2023-04-22T23:35:28.349Z,99781.28
2023-04-22T23:38:17.597Z,99773.88
2023-04-22T23:41:07.142Z,99786.72
2023-04-22T23:43:56.627Z,99779.34
2023-04-22T23:46:45.981Z,99775.84
2023-04-22T23:49:35.698Z,99775.72
2023-04-22T23:52:26.328Z,99776.81
2023-04-22T23:55:16.991Z,99773.13
2023-04-22T23:58:06.787Z,99781.03
